Lietadlo (typ, imatrikulačný znak): _________________/__________________
Meno pilota (skontroloval): ___________________________________
Podpis pilota (skontroloval): ___________________________________

Predpoveď na dnes

NOC: Polojasno až oblačno, na severe prevažne veľká oblačnosť. Miestami, v severnej polovici územia na mnohých miestach, prehánky alebo dážď, vo vysokých polohách zrážky snehové. Nadránom ojedinele hmla. Najnižšia nočná teplota 8 až 3, v údoliach ojedinele okolo 1 st. Prevažne severozápadný vietor 2 až 7 m/s (5 až 25 km/h), na strednom Slovensku väčšinou len slabý vietor. DEŇ: Premenlivá, prevažne veľká oblačnosť, na severe miestami až zamračené. Na viacerých miestach prehánky alebo dážď, spočiatku len vo vysokých, neskôr na severe už aj v stredných polohách zrážky snehové. Zrána ojedinele hmla. Najvyššia denná teplota 11 až 16, v Žilinskom kraji, na severovýchode a na Horehroní väčšinou 6 až 11 st. Teplota na horách vo výške 1500 m okolo -1 st. Prevažne severozápadný vietor 2 až 7 m/s (5 až 25 km/h), popoludní na juhozápade - a ojedinele aj inde - až do 11 m/s (40 km/h) a v nárazoch miestami okolo 16 m/s (60 km/h). Predpokladané množstvo zrážok: NOC: do 5 mm / vo vysokých polohách do 5 cm DEŇ: do 4, na severe aj do 8 mm / od cca 800 m n. m. poprašok až 10 cm Tendencia tlaku vzduchu: slabý až mierny pokles

SHMÚ, OMPaV, PZ 24.3.2019 21:00 SEČ

METAR - Letisková meteo správa

Letisková meteorologická správa METAR

Meteorologické informácie z ďalších profesionálnych meteorologických staníc SHMÚ zobrazené v tvare zodpovedajúcom pravidlám kódovania správ METAR sú uvedené v položke „METSYN Informácie o správe METAR

25.03.2019 - 03:30 UTC

METAR LZIB 250330Z 31006KT CAVOK 09/05 Q1015=
 METAR LZKZ 250330Z 02010KT 9999 BKN038 09/02 Q1011=
 METAR LZPP 250330Z AUTO 30006KT 9999 BKN085/// OVC240/// 04/02
 Q1015=
 METAR LZSL 250330Z 29007KT CAVOK 06/02 Q1012=
 METAR LZTT 250330Z 08006KT 9999 OVC020 04/01 Q1011=
 METAR LZZI 250330Z VRB01KT 9999 OVC024 07/03 Q1014=
 

25.03.2019 - 03:00 UTC

METAR LZIB 250300Z 30006KT CAVOK 09/05 Q1016=
 METAR LZKZ 250300Z 02007KT 9999 BKN040 10/02 Q1011=
 METAR LZPP 250300Z AUTO 30004KT 9999 NCD 05/02 Q1015=
 METAR LZSL 250300Z VRB02G12KT CAVOK 04/02 Q1013=
 METAR LZTT 250300Z 06004KT 9999 OVC019 04/02 Q1011=
 METAR LZZI 250300Z 09003KT 030V130 9999 OVC024 07/03 Q1014=
 

25.03.2019 - 03:00 UTC

METAR LZMC 250300Z 30002KT 6000 NSC 07/04 Q1016=
 METAR LZPW 250300Z 04006KT 9999 OVC037 07/01 Q1012=
 

TAF - Letisková predpoveď

25.03.2019 - 02:00 UTC

TAF LZSL 250200Z 2503/2512 VRB02KT CAVOK
     BECMG 2504/2506 31005KT
     PROB40 TEMPO 2505/2512 7000 -RA FEW035 BKN055=
 TAF LZZI 250200Z 2503/2512 VRB02KT 9999 BKN045 OVC065
     TEMPO 2503/2507 4800 -RA BR FEW018 BKN035
     TEMPO 2507/2512 -SHRA
     TEMPO 2509/2512 28008KT=
 

24.03.2019 - 17:00 UTC (Včera)

TAF LZIB 241700Z 2418/2518 24006KT CAVOK
     BECMG 2421/2423 31008KT SCT040 BKN080
     PROB40 TEMPO 2502/2512 -SHRA BKN040
     TEMPO 2512/2518 33015G28KT=
 TAF LZKZ 241700Z 2418/2518 03010KT CAVOK
     BECMG 2418/2420 9999 SCT045 BKN080
     PROB30 TEMPO 2501/2506 -RA BKN040
     TEMPO 2503/2512 01018KT
     TEMPO 2511/2518 -SHRA BKN045=
 TAF LZTT 241700Z 2418/2518 06008KT 9999 SCT036 BKN050
     TEMPO 2420/2506 25005KT
     PROB40 TEMPO 2420/2518 7000 -SHRA SCT013 BKN030
     BECMG 2510/2512 27012KT=
 

24.03.2019 - 08:00 UTC (Včera)

TAF LZSL 240800Z 2409/2418 VRB02KT CAVOK
     TEMPO 2412/2416 07005KT 9999 SCT050=
 TAF LZPP 240800Z 2409/2418 01012KT CAVOK
     BECMG 2413/2415 20004KT=
 TAF LZZI 240800Z 2409/2418 05005KT 9999 BKN020
     BECMG 2409/2411 SCT025=